Terminal Aerodrome Forecast
Issued by NWS Rapid City, SD

Home | Current Version | Previous Version | Graphics & Text | Print | Product List | Glossary On
Versions: 1 2 3 4 5 6 7 8 9 10 11 12 13 14 15 16 17 18 19 20
000
FTUS43 KUNR 221057 AAC
TAFRAP
TAF AMD
KRAP 221057Z 2211/2306 17016KT P6SM SCT015 WS015/18040KT
     FM221300 18018G30KT P6SM SCT100
     FM230000 36005KT P6SM BKN150=

USA.gov is the U.S. government's official web portal to all federal, state and local government web resources and services.